sensor_id;sensor_type;location;lat;lon;timestamp;P1;durP1;ratioP1;P2;durP2;ratioP2
11135;SDS011;5622;50.840;4.948;2023-06-22T00:00:21;8.17;;;5.77;;
11135;SDS011;5622;50.840;4.948;2023-06-22T00:02:51;7.40;;;6.40;;
11135;SDS011;5622;50.840;4.948;2023-06-22T00:05:18;6.60;;;5.90;;
11135;SDS011;5622;50.840;4.948;2023-06-22T00:07:46;7.83;;;5.83;;
11135;SDS011;5622;50.840;4.948;2023-06-22T00:10:13;8.77;;;5.83;;
11135;SDS011;5622;50.840;4.948;2023-06-22T00:12:41;7.03;;;5.90;;
11135;SDS011;5622;50.840;4.948;2023-06-22T00:15:09;5.77;;;5.17;;
11135;SDS011;5622;50.840;4.948;2023-06-22T00:17:36;7.30;;;5.93;;
11135;SDS011;5622;50.840;4.948;2023-06-22T00:20:07;7.90;;;5.80;;
11135;SDS011;5622;50.840;4.948;2023-06-22T00:22:35;7.40;;;6.00;;
11135;SDS011;5622;50.840;4.948;2023-06-22T00:25:06;7.30;;;6.30;;
11135;SDS011;5622;50.840;4.948;2023-06-22T00:27:34;7.03;;;5.17;;
11135;SDS011;5622;50.840;4.948;2023-06-22T00:30:04;6.73;;;5.90;;
11135;SDS011;5622;50.840;4.948;2023-06-22T00:32:34;7.30;;;5.70;;
11135;SDS011;5622;50.840;4.948;2023-06-22T00:35:01;7.80;;;6.17;;
11135;SDS011;5622;50.840;4.948;2023-06-22T00:37:34;9.10;;;5.63;;
11135;SDS011;5622;50.840;4.948;2023-06-22T00:40:01;7.13;;;5.60;;
11135;SDS011;5622;50.840;4.948;2023-06-22T00:42:30;6.73;;;5.20;;
11135;SDS011;5622;50.840;4.948;2023-06-22T00:44:58;7.77;;;5.20;;
11135;SDS011;5622;50.840;4.948;2023-06-22T00:47:28;6.83;;;5.33;;
11135;SDS011;5622;50.840;4.948;2023-06-22T00:49:56;9.07;;;6.17;;
11135;SDS011;5622;50.840;4.948;2023-06-22T00:52:28;7.80;;;5.90;;
11135;SDS011;5622;50.840;4.948;2023-06-22T00:54:58;7.80;;;6.73;;
11135;SDS011;5622;50.840;4.948;2023-06-22T00:57:30;6.73;;;6.07;;
11135;SDS011;5622;50.840;4.948;2023-06-22T01:00:01;6.60;;;5.97;;
11135;SDS011;5622;50.840;4.948;2023-06-22T01:02:37;6.77;;;6.00;;
11135;SDS011;5622;50.840;4.948;2023-06-22T01:05:04;8.77;;;6.00;;
11135;SDS011;5622;50.840;4.948;2023-06-22T01:07:34;8.97;;;6.73;;
11135;SDS011;5622;50.840;4.948;2023-06-22T01:10:14;7.17;;;6.43;;
11135;SDS011;5622;50.840;4.948;2023-06-22T01:12:48;8.87;;;5.77;;
11135;SDS011;5622;50.840;4.948;2023-06-22T01:15:21;8.17;;;6.20;;
11135;SDS011;5622;50.840;4.948;2023-06-22T01:17:55;8.47;;;6.30;;
11135;SDS011;5622;50.840;4.948;2023-06-22T01:20:25;9.30;;;6.73;;
11135;SDS011;5622;50.840;4.948;2023-06-22T01:23:01;7.43;;;6.50;;
11135;SDS011;5622;50.840;4.948;2023-06-22T01:25:36;8.17;;;6.63;;
11135;SDS011;5622;50.840;4.948;2023-06-22T01:28:21;7.87;;;6.30;;
11135;SDS011;5622;50.840;4.948;2023-06-22T01:30:53;8.37;;;6.33;;
11135;SDS011;5622;50.840;4.948;2023-06-22T01:33:29;7.03;;;6.17;;
11135;SDS011;5622;50.840;4.948;2023-06-22T01:36:00;6.93;;;5.67;;
11135;SDS011;5622;50.840;4.948;2023-06-22T01:38:29;8.33;;;6.47;;
11135;SDS011;5622;50.840;4.948;2023-06-22T01:40:57;7.00;;;6.30;;
11135;SDS011;5622;50.840;4.948;2023-06-22T01:43:25;7.67;;;6.23;;
11135;SDS011;5622;50.840;4.948;2023-06-22T01:46:00;7.60;;;6.70;;
11135;SDS011;5622;50.840;4.948;2023-06-22T01:48:29;8.20;;;7.03;;
11135;SDS011;5622;50.840;4.948;2023-06-22T01:50:57;7.53;;;6.60;;
11135;SDS011;5622;50.840;4.948;2023-06-22T01:53:25;8.40;;;7.13;;
11135;SDS011;5622;50.840;4.948;2023-06-22T01:55:53;8.60;;;6.93;;
11135;SDS011;5622;50.840;4.948;2023-06-22T01:58:21;9.13;;;6.77;;
11135;SDS011;5622;50.840;4.948;2023-06-22T02:00:53;7.13;;;6.40;;
11135;SDS011;5622;50.840;4.948;2023-06-22T02:03:30;8.53;;;6.53;;
11135;SDS011;5622;50.840;4.948;2023-06-22T02:06:03;8.27;;;5.93;;
11135;SDS011;5622;50.840;4.948;2023-06-22T02:08:36;9.10;;;6.43;;
11135;SDS011;5622;50.840;4.948;2023-06-22T02:11:09;7.93;;;6.30;;
11135;SDS011;5622;50.840;4.948;2023-06-22T02:13:38;6.47;;;5.60;;
11135;SDS011;5622;50.840;4.948;2023-06-22T02:16:11;6.93;;;5.50;;
11135;SDS011;5622;50.840;4.948;2023-06-22T02:18:45;8.20;;;6.17;;
11135;SDS011;5622;50.840;4.948;2023-06-22T02:21:16;6.70;;;6.00;;
11135;SDS011;5622;50.840;4.948;2023-06-22T02:23:44;7.53;;;5.50;;
11135;SDS011;5622;50.840;4.948;2023-06-22T02:26:12;8.23;;;6.00;;
11135;SDS011;5622;50.840;4.948;2023-06-22T02:28:40;6.77;;;5.27;;
11135;SDS011;5622;50.840;4.948;2023-06-22T02:31:08;8.93;;;6.10;;
11135;SDS011;5622;50.840;4.948;2023-06-22T02:33:38;8.00;;;5.70;;
11135;SDS011;5622;50.840;4.948;2023-06-22T02:36:05;10.70;;;5.80;;
11135;SDS011;5622;50.840;4.948;2023-06-22T02:38:34;7.23;;;6.50;;
11135;SDS011;5622;50.840;4.948;2023-06-22T02:41:02;10.50;;;6.90;;
11135;SDS011;5622;50.840;4.948;2023-06-22T02:43:30;7.50;;;5.70;;
11135;SDS011;5622;50.840;4.948;2023-06-22T02:45:57;6.60;;;5.87;;
11135;SDS011;5622;50.840;4.948;2023-06-22T02:48:25;10.90;;;6.67;;
11135;SDS011;5622;50.840;4.948;2023-06-22T02:50:56;7.03;;;5.53;;
11135;SDS011;5622;50.840;4.948;2023-06-22T02:53:25;6.97;;;6.00;;
11135;SDS011;5622;50.840;4.948;2023-06-22T02:55:53;7.67;;;5.30;;
11135;SDS011;5622;50.840;4.948;2023-06-22T02:58:21;7.30;;;6.57;;
11135;SDS011;5622;50.840;4.948;2023-06-22T03:00:49;8.40;;;5.80;;
11135;SDS011;5622;50.840;4.948;2023-06-22T03:03:18;8.37;;;5.33;;
11135;SDS011;5622;50.840;4.948;2023-06-22T03:05:45;7.60;;;6.23;;
11135;SDS011;5622;50.840;4.948;2023-06-22T03:08:15;7.43;;;5.60;;
11135;SDS011;5622;50.840;4.948;2023-06-22T03:10:43;6.27;;;5.33;;
11135;SDS011;5622;50.840;4.948;2023-06-22T03:13:13;8.97;;;6.03;;
11135;SDS011;5622;50.840;4.948;2023-06-22T03:15:42;6.53;;;5.80;;
11135;SDS011;5622;50.840;4.948;2023-06-22T03:18:11;10.07;;;6.27;;
11135;SDS011;5622;50.840;4.948;2023-06-22T03:20:39;7.30;;;6.50;;
11135;SDS011;5622;50.840;4.948;2023-06-22T03:23:06;10.23;;;5.77;;
11135;SDS011;5622;50.840;4.948;2023-06-22T03:25:35;7.07;;;5.93;;
11135;SDS011;5622;50.840;4.948;2023-06-22T03:28:03;8.83;;;6.90;;
11135;SDS011;5622;50.840;4.948;2023-06-22T03:30:33;11.60;;;6.53;;
11135;SDS011;5622;50.840;4.948;2023-06-22T03:33:00;8.37;;;5.90;;
11135;SDS011;5622;50.840;4.948;2023-06-22T03:35:28;9.77;;;6.77;;
11135;SDS011;5622;50.840;4.948;2023-06-22T03:37:56;8.90;;;5.93;;
11135;SDS011;5622;50.840;4.948;2023-06-22T03:40:24;7.00;;;6.30;;
11135;SDS011;5622;50.840;4.948;2023-06-22T03:42:53;9.87;;;6.63;;
11135;SDS011;5622;50.840;4.948;2023-06-22T03:45:20;9.53;;;6.47;;
11135;SDS011;5622;50.840;4.948;2023-06-22T03:47:48;9.77;;;7.10;;
11135;SDS011;5622;50.840;4.948;2023-06-22T03:50:15;11.33;;;6.67;;
11135;SDS011;5622;50.840;4.948;2023-06-22T03:52:45;8.07;;;6.10;;
11135;SDS011;5622;50.840;4.948;2023-06-22T03:55:17;7.97;;;6.67;;
11135;SDS011;5622;50.840;4.948;2023-06-22T03:57:46;12.67;;;7.33;;
11135;SDS011;5622;50.840;4.948;2023-06-22T04:00:16;10.20;;;7.37;;
11135;SDS011;5622;50.840;4.948;2023-06-22T04:02:44;10.60;;;7.47;;
11135;SDS011;5622;50.840;4.948;2023-06-22T04:05:12;10.37;;;7.03;;
11135;SDS011;5622;50.840;4.948;2023-06-22T04:07:44;10.00;;;7.73;;
11135;SDS011;5622;50.840;4.948;2023-06-22T04:10:12;9.20;;;6.90;;
11135;SDS011;5622;50.840;4.948;2023-06-22T04:12:40;9.83;;;6.47;;
11135;SDS011;5622;50.840;4.948;2023-06-22T04:15:08;9.60;;;6.70;;
11135;SDS011;5622;50.840;4.948;2023-06-22T04:17:41;8.83;;;7.40;;
11135;SDS011;5622;50.840;4.948;2023-06-22T04:20:09;8.73;;;7.43;;
11135;SDS011;5622;50.840;4.948;2023-06-22T04:22:39;7.73;;;6.40;;
11135;SDS011;5622;50.840;4.948;2023-06-22T04:25:07;8.63;;;6.57;;
11135;SDS011;5622;50.840;4.948;2023-06-22T04:27:37;8.53;;;6.40;;
11135;SDS011;5622;50.840;4.948;2023-06-22T04:30:07;8.53;;;7.23;;
11135;SDS011;5622;50.840;4.948;2023-06-22T04:32:36;9.23;;;7.03;;
11135;SDS011;5622;50.840;4.948;2023-06-22T04:35:06;11.03;;;9.13;;
11135;SDS011;5622;50.840;4.948;2023-06-22T04:37:34;10.37;;;7.70;;
11135;SDS011;5622;50.840;4.948;2023-06-22T04:40:06;10.57;;;8.03;;
11135;SDS011;5622;50.840;4.948;2023-06-22T04:42:34;11.27;;;7.83;;
11135;SDS011;5622;50.840;4.948;2023-06-22T04:45:05;9.17;;;8.10;;
11135;SDS011;5622;50.840;4.948;2023-06-22T04:47:35;10.83;;;8.63;;
11135;SDS011;5622;50.840;4.948;2023-06-22T04:50:08;10.73;;;9.20;;
11135;SDS011;5622;50.840;4.948;2023-06-22T04:52:37;10.53;;;8.63;;
11135;SDS011;5622;50.840;4.948;2023-06-22T04:55:06;12.57;;;9.67;;
11135;SDS011;5622;50.840;4.948;2023-06-22T04:57:34;15.20;;;9.50;;
11135;SDS011;5622;50.840;4.948;2023-06-22T05:00:05;11.60;;;8.70;;
11135;SDS011;5622;50.840;4.948;2023-06-22T05:02:50;15.47;;;11.00;;
11135;SDS011;5622;50.840;4.948;2023-06-22T05:05:18;13.30;;;9.43;;
11135;SDS011;5622;50.840;4.948;2023-06-22T05:07:46;13.13;;;9.70;;
11135;SDS011;5622;50.840;4.948;2023-06-22T05:10:15;15.17;;;10.50;;
11135;SDS011;5622;50.840;4.948;2023-06-22T05:12:43;11.73;;;9.43;;
11135;SDS011;5622;50.840;4.948;2023-06-22T05:15:10;12.80;;;9.37;;
11135;SDS011;5622;50.840;4.948;2023-06-22T05:17:38;11.43;;;10.07;;
11135;SDS011;5622;50.840;4.948;2023-06-22T05:20:08;11.80;;;10.23;;
11135;SDS011;5622;50.840;4.948;2023-06-22T05:22:37;16.60;;;11.50;;
11135;SDS011;5622;50.840;4.948;2023-06-22T05:25:07;13.00;;;10.90;;
11135;SDS011;5622;50.840;4.948;2023-06-22T05:27:35;12.07;;;10.30;;
11135;SDS011;5622;50.840;4.948;2023-06-22T05:30:05;13.67;;;10.23;;
11135;SDS011;5622;50.840;4.948;2023-06-22T05:32:33;14.03;;;11.67;;
11135;SDS011;5622;50.840;4.948;2023-06-22T05:35:00;11.70;;;10.50;;
11135;SDS011;5622;50.840;4.948;2023-06-22T05:37:30;12.10;;;9.93;;
11135;SDS011;5622;50.840;4.948;2023-06-22T05:39:59;13.50;;;10.53;;
11135;SDS011;5622;50.840;4.948;2023-06-22T05:42:28;13.20;;;11.27;;
11135;SDS011;5622;50.840;4.948;2023-06-22T05:44:58;13.30;;;10.20;;
11135;SDS011;5622;50.840;4.948;2023-06-22T05:47:25;16.23;;;12.60;;
11135;SDS011;5622;50.840;4.948;2023-06-22T05:49:53;14.23;;;11.80;;
11135;SDS011;5622;50.840;4.948;2023-06-22T05:52:20;12.60;;;11.30;;
11135;SDS011;5622;50.840;4.948;2023-06-22T05:54:48;14.10;;;11.10;;
11135;SDS011;5622;50.840;4.948;2023-06-22T05:57:17;15.17;;;12.00;;
11135;SDS011;5622;50.840;4.948;2023-06-22T05:59:46;11.93;;;10.63;;
11135;SDS011;5622;50.840;4.948;2023-06-22T06:02:14;14.47;;;11.40;;
11135;SDS011;5622;50.840;4.948;2023-06-22T06:04:41;16.67;;;13.00;;
11135;SDS011;5622;50.840;4.948;2023-06-22T06:07:08;16.23;;;12.27;;
11135;SDS011;5622;50.840;4.948;2023-06-22T06:09:35;16.93;;;13.13;;
11135;SDS011;5622;50.840;4.948;2023-06-22T06:12:02;14.53;;;12.03;;
11135;SDS011;5622;50.840;4.948;2023-06-22T06:14:32;16.10;;;11.43;;
11135;SDS011;5622;50.840;4.948;2023-06-22T06:16:59;21.53;;;13.93;;
11135;SDS011;5622;50.840;4.948;2023-06-22T06:19:26;15.40;;;13.23;;
11135;SDS011;5622;50.840;4.948;2023-06-22T06:21:53;16.27;;;13.00;;
11135;SDS011;5622;50.840;4.948;2023-06-22T06:24:20;16.47;;;13.07;;
11135;SDS011;5622;50.840;4.948;2023-06-22T06:26:47;21.43;;;14.33;;
11135;SDS011;5622;50.840;4.948;2023-06-22T06:29:14;17.30;;;12.07;;
11135;SDS011;5622;50.840;4.948;2023-06-22T06:31:44;17.57;;;14.07;;
11135;SDS011;5622;50.840;4.948;2023-06-22T06:34:11;18.10;;;12.40;;
11135;SDS011;5622;50.840;4.948;2023-06-22T06:36:38;17.03;;;13.40;;
11135;SDS011;5622;50.840;4.948;2023-06-22T06:39:05;17.57;;;14.13;;
11135;SDS011;5622;50.840;4.948;2023-06-22T06:41:32;18.87;;;13.63;;
11135;SDS011;5622;50.840;4.948;2023-06-22T06:43:59;20.87;;;15.30;;
11135;SDS011;5622;50.840;4.948;2023-06-22T06:46:26;19.77;;;15.10;;
11135;SDS011;5622;50.840;4.948;2023-06-22T06:48:55;19.27;;;14.67;;
11135;SDS011;5622;50.840;4.948;2023-06-22T06:51:22;21.17;;;14.27;;
11135;SDS011;5622;50.840;4.948;2023-06-22T06:53:49;17.43;;;12.97;;
11135;SDS011;5622;50.840;4.948;2023-06-22T06:56:16;18.83;;;14.17;;
11135;SDS011;5622;50.840;4.948;2023-06-22T06:58:44;16.70;;;13.77;;
11135;SDS011;5622;50.840;4.948;2023-06-22T07:01:11;14.83;;;12.30;;
11135;SDS011;5622;50.840;4.948;2023-06-22T07:03:38;18.10;;;12.67;;
11135;SDS011;5622;50.840;4.948;2023-06-22T07:06:07;12.23;;;10.00;;
11135;SDS011;5622;50.840;4.948;2023-06-22T07:08:35;18.27;;;12.03;;
11135;SDS011;5622;50.840;4.948;2023-06-22T07:11:02;19.23;;;12.77;;
11135;SDS011;5622;50.840;4.948;2023-06-22T07:13:29;15.33;;;11.23;;
11135;SDS011;5622;50.840;4.948;2023-06-22T07:15:56;13.20;;;9.03;;
11135;SDS011;5622;50.840;4.948;2023-06-22T07:18:24;12.60;;;10.03;;
11135;SDS011;5622;50.840;4.948;2023-06-22T07:20:51;12.90;;;10.57;;
11135;SDS011;5622;50.840;4.948;2023-06-22T07:23:20;16.67;;;11.27;;
11135;SDS011;5622;50.840;4.948;2023-06-22T07:25:47;16.57;;;10.00;;
11135;SDS011;5622;50.840;4.948;2023-06-22T07:28:14;12.83;;;8.27;;
11135;SDS011;5622;50.840;4.948;2023-06-22T07:30:41;10.57;;;8.40;;
11135;SDS011;5622;50.840;4.948;2023-06-22T07:33:08;13.70;;;9.33;;
11135;SDS011;5622;50.840;4.948;2023-06-22T07:35:35;12.77;;;8.67;;
11135;SDS011;5622;50.840;4.948;2023-06-22T07:38:03;15.20;;;8.60;;
11135;SDS011;5622;50.840;4.948;2023-06-22T07:40:31;15.13;;;9.43;;
11135;SDS011;5622;50.840;4.948;2023-06-22T07:43:00;13.23;;;9.07;;
11135;SDS011;5622;50.840;4.948;2023-06-22T07:45:27;14.73;;;8.57;;
11135;SDS011;5622;50.840;4.948;2023-06-22T07:47:54;18.57;;;9.50;;
11135;SDS011;5622;50.840;4.948;2023-06-22T07:50:21;12.57;;;8.80;;
11135;SDS011;5622;50.840;4.948;2023-06-22T07:52:49;11.93;;;8.20;;
11135;SDS011;5622;50.840;4.948;2023-06-22T07:55:17;11.97;;;8.30;;
11135;SDS011;5622;50.840;4.948;2023-06-22T07:57:46;10.23;;;8.53;;
11135;SDS011;5622;50.840;4.948;2023-06-22T08:00:18;12.77;;;9.20;;
11135;SDS011;5622;50.840;4.948;2023-06-22T08:02:45;11.73;;;8.40;;
11135;SDS011;5622;50.840;4.948;2023-06-22T08:05:13;10.77;;;8.77;;
11135;SDS011;5622;50.840;4.948;2023-06-22T08:07:42;14.60;;;9.20;;
11135;SDS011;5622;50.840;4.948;2023-06-22T08:10:10;12.17;;;9.13;;
11135;SDS011;5622;50.840;4.948;2023-06-22T08:12:37;11.37;;;9.27;;
11135;SDS011;5622;50.840;4.948;2023-06-22T08:15:07;13.23;;;9.73;;
11135;SDS011;5622;50.840;4.948;2023-06-22T08:17:36;12.87;;;9.90;;
11135;SDS011;5622;50.840;4.948;2023-06-22T08:20:03;11.87;;;9.37;;
11135;SDS011;5622;50.840;4.948;2023-06-22T08:22:34;11.47;;;8.60;;
11135;SDS011;5622;50.840;4.948;2023-06-22T08:25:03;12.30;;;9.93;;
11135;SDS011;5622;50.840;4.948;2023-06-22T08:27:31;11.57;;;9.67;;
11135;SDS011;5622;50.840;4.948;2023-06-22T08:29:58;13.73;;;9.33;;
11135;SDS011;5622;50.840;4.948;2023-06-22T08:32:27;11.27;;;8.87;;
11135;SDS011;5622;50.840;4.948;2023-06-22T08:34:54;14.37;;;10.40;;
11135;SDS011;5622;50.840;4.948;2023-06-22T08:37:22;9.50;;;8.53;;
11135;SDS011;5622;50.840;4.948;2023-06-22T08:39:55;13.90;;;9.20;;
11135;SDS011;5622;50.840;4.948;2023-06-22T08:42:23;13.50;;;8.83;;
11135;SDS011;5622;50.840;4.948;2023-06-22T08:44:50;9.97;;;8.57;;
11135;SDS011;5622;50.840;4.948;2023-06-22T08:47:18;9.87;;;8.80;;
11135;SDS011;5622;50.840;4.948;2023-06-22T08:49:48;14.87;;;9.03;;
11135;SDS011;5622;50.840;4.948;2023-06-22T08:52:15;14.67;;;9.93;;
11135;SDS011;5622;50.840;4.948;2023-06-22T08:54:43;10.30;;;8.23;;
11135;SDS011;5622;50.840;4.948;2023-06-22T08:57:10;14.03;;;9.87;;
11135;SDS011;5622;50.840;4.948;2023-06-22T08:59:38;10.87;;;9.77;;
11135;SDS011;5622;50.840;4.948;2023-06-22T09:02:05;11.83;;;10.33;;
11135;SDS011;5622;50.840;4.948;2023-06-22T09:04:33;17.30;;;10.13;;
11135;SDS011;5622;50.840;4.948;2023-06-22T09:07:02;15.07;;;10.83;;
11135;SDS011;5622;50.840;4.948;2023-06-22T09:09:29;14.83;;;12.07;;
11135;SDS011;5622;50.840;4.948;2023-06-22T09:11:56;14.73;;;9.77;;
11135;SDS011;5622;50.840;4.948;2023-06-22T09:14:24;16.83;;;11.73;;
11135;SDS011;5622;50.840;4.948;2023-06-22T09:16:51;17.17;;;13.10;;
11135;SDS011;5622;50.840;4.948;2023-06-22T09:19:18;15.57;;;13.97;;
11135;SDS011;5622;50.840;4.948;2023-06-22T09:21:46;15.90;;;14.03;;
11135;SDS011;5622;50.840;4.948;2023-06-22T09:24:15;20.37;;;15.53;;
11135;SDS011;5622;50.840;4.948;2023-06-22T09:26:42;16.13;;;14.20;;
11135;SDS011;5622;50.840;4.948;2023-06-22T09:29:09;22.37;;;15.73;;
11135;SDS011;5622;50.840;4.948;2023-06-22T09:31:36;17.60;;;14.33;;
11135;SDS011;5622;50.840;4.948;2023-06-22T09:34:04;17.30;;;14.53;;
11135;SDS011;5622;50.840;4.948;2023-06-22T09:36:31;16.97;;;15.17;;
11135;SDS011;5622;50.840;4.948;2023-06-22T09:38:58;19.03;;;15.40;;
11135;SDS011;5622;50.840;4.948;2023-06-22T09:41:32;18.07;;;16.17;;
11135;SDS011;5622;50.840;4.948;2023-06-22T09:43:59;19.67;;;14.97;;
11135;SDS011;5622;50.840;4.948;2023-06-22T09:46:26;18.07;;;14.93;;
11135;SDS011;5622;50.840;4.948;2023-06-22T09:48:53;17.53;;;14.93;;
11135;SDS011;5622;50.840;4.948;2023-06-22T09:51:21;18.53;;;15.10;;
11135;SDS011;5622;50.840;4.948;2023-06-22T09:53:48;15.53;;;13.37;;
11135;SDS011;5622;50.840;4.948;2023-06-22T09:56:16;19.93;;;15.33;;
11135;SDS011;5622;50.840;4.948;2023-06-22T09:58:45;16.37;;;14.63;;
11135;SDS011;5622;50.840;4.948;2023-06-22T10:01:15;19.67;;;16.20;;
11135;SDS011;5622;50.840;4.948;2023-06-22T10:03:42;18.87;;;16.57;;
11135;SDS011;5622;50.840;4.948;2023-06-22T10:06:10;20.30;;;17.43;;
11135;SDS011;5622;50.840;4.948;2023-06-22T10:08:37;21.40;;;18.13;;
11135;SDS011;5622;50.840;4.948;2023-06-22T10:11:04;23.97;;;20.13;;
11135;SDS011;5622;50.840;4.948;2023-06-22T10:13:31;23.30;;;17.90;;
11135;SDS011;5622;50.840;4.948;2023-06-22T10:16:00;21.30;;;19.00;;
11135;SDS011;5622;50.840;4.948;2023-06-22T10:18:27;21.37;;;18.93;;
11135;SDS011;5622;50.840;4.948;2023-06-22T10:20:55;20.97;;;18.03;;
11135;SDS011;5622;50.840;4.948;2023-06-22T10:23:22;25.30;;;19.13;;
11135;SDS011;5622;50.840;4.948;2023-06-22T10:25:50;24.60;;;19.30;;
11135;SDS011;5622;50.840;4.948;2023-06-22T10:28:17;24.90;;;19.27;;
11135;SDS011;5622;50.840;4.948;2023-06-22T10:30:44;23.33;;;19.33;;
11135;SDS011;5622;50.840;4.948;2023-06-22T10:33:12;24.63;;;18.20;;
11135;SDS011;5622;50.840;4.948;2023-06-22T10:35:39;21.33;;;18.80;;
11135;SDS011;5622;50.840;4.948;2023-06-22T10:38:06;26.30;;;19.60;;
11135;SDS011;5622;50.840;4.948;2023-06-22T10:40:34;24.30;;;19.97;;
11135;SDS011;5622;50.840;4.948;2023-06-22T10:43:01;26.83;;;21.77;;
11135;SDS011;5622;50.840;4.948;2023-06-22T10:45:29;28.17;;;22.50;;
11135;SDS011;5622;50.840;4.948;2023-06-22T10:47:56;26.27;;;21.47;;
11135;SDS011;5622;50.840;4.948;2023-06-22T10:50:24;28.27;;;23.57;;
11135;SDS011;5622;50.840;4.948;2023-06-22T10:52:52;31.83;;;23.60;;
11135;SDS011;5622;50.840;4.948;2023-06-22T10:55:20;26.53;;;22.07;;
11135;SDS011;5622;50.840;4.948;2023-06-22T10:57:47;30.57;;;24.87;;
11135;SDS011;5622;50.840;4.948;2023-06-22T11:00:15;29.50;;;24.40;;
11135;SDS011;5622;50.840;4.948;2023-06-22T11:02:43;40.00;;;27.77;;
11135;SDS011;5622;50.840;4.948;2023-06-22T11:05:10;33.43;;;27.27;;
11135;SDS011;5622;50.840;4.948;2023-06-22T11:07:42;33.10;;;26.37;;
11135;SDS011;5622;50.840;4.948;2023-06-22T11:10:14;34.50;;;26.87;;
11135;SDS011;5622;50.840;4.948;2023-06-22T11:12:42;35.70;;;29.30;;
11135;SDS011;5622;50.840;4.948;2023-06-22T11:15:12;37.97;;;30.43;;
11135;SDS011;5622;50.840;4.948;2023-06-22T11:17:39;37.30;;;29.30;;
11135;SDS011;5622;50.840;4.948;2023-06-22T11:20:09;40.67;;;32.17;;
11135;SDS011;5622;50.840;4.948;2023-06-22T11:22:37;37.90;;;29.63;;
11135;SDS011;5622;50.840;4.948;2023-06-22T11:25:06;39.17;;;31.17;;
11135;SDS011;5622;50.840;4.948;2023-06-22T11:27:34;35.83;;;30.33;;
11135;SDS011;5622;50.840;4.948;2023-06-22T11:30:01;39.57;;;32.20;;
11135;SDS011;5622;50.840;4.948;2023-06-22T11:32:29;39.10;;;31.70;;
11135;SDS011;5622;50.840;4.948;2023-06-22T11:34:56;38.90;;;30.00;;
11135;SDS011;5622;50.840;4.948;2023-06-22T11:37:24;36.70;;;30.57;;
11135;SDS011;5622;50.840;4.948;2023-06-22T11:39:51;35.33;;;30.30;;
11135;SDS011;5622;50.840;4.948;2023-06-22T11:42:21;36.80;;;29.77;;
11135;SDS011;5622;50.840;4.948;2023-06-22T11:44:50;37.20;;;30.73;;
11135;SDS011;5622;50.840;4.948;2023-06-22T11:47:18;42.97;;;30.67;;
11135;SDS011;5622;50.840;4.948;2023-06-22T11:49:45;40.97;;;34.33;;
11135;SDS011;5622;50.840;4.948;2023-06-22T11:52:13;40.63;;;32.67;;
11135;SDS011;5622;50.840;4.948;2023-06-22T11:54:40;37.87;;;30.63;;
11135;SDS011;5622;50.840;4.948;2023-06-22T11:57:07;41.67;;;34.00;;
11135;SDS011;5622;50.840;4.948;2023-06-22T11:59:36;47.57;;;35.53;;
11135;SDS011;5622;50.840;4.948;2023-06-22T12:02:03;40.80;;;31.77;;
11135;SDS011;5622;50.840;4.948;2023-06-22T12:04:34;40.80;;;33.00;;
11135;SDS011;5622;50.840;4.948;2023-06-22T12:07:03;44.57;;;34.10;;
11135;SDS011;5622;50.840;4.948;2023-06-22T12:09:31;40.40;;;32.63;;
11135;SDS011;5622;50.840;4.948;2023-06-22T12:11:58;43.17;;;33.73;;
11135;SDS011;5622;50.840;4.948;2023-06-22T12:14:27;45.87;;;33.93;;
11135;SDS011;5622;50.840;4.948;2023-06-22T12:16:59;40.50;;;33.27;;
11135;SDS011;5622;50.840;4.948;2023-06-22T12:19:31;42.17;;;33.93;;
11135;SDS011;5622;50.840;4.948;2023-06-22T12:21:58;44.20;;;33.23;;
11135;SDS011;5622;50.840;4.948;2023-06-22T12:24:28;43.73;;;34.57;;
11135;SDS011;5622;50.840;4.948;2023-06-22T12:26:59;43.40;;;33.27;;
11135;SDS011;5622;50.840;4.948;2023-06-22T12:29:28;40.77;;;33.33;;
11135;SDS011;5622;50.840;4.948;2023-06-22T12:32:04;43.77;;;33.23;;
11135;SDS011;5622;50.840;4.948;2023-06-22T12:34:32;40.90;;;32.37;;
11135;SDS011;5622;50.840;4.948;2023-06-22T12:37:03;40.53;;;32.30;;
11135;SDS011;5622;50.840;4.948;2023-06-22T12:39:44;43.73;;;32.83;;
11135;SDS011;5622;50.840;4.948;2023-06-22T12:42:20;41.60;;;32.13;;
11135;SDS011;5622;50.840;4.948;2023-06-22T12:44:52;42.17;;;33.47;;
11135;SDS011;5622;50.840;4.948;2023-06-22T12:48:05;40.33;;;32.67;;
11135;SDS011;5622;50.840;4.948;2023-06-22T12:50:40;37.97;;;31.17;;
11135;SDS011;5622;50.840;4.948;2023-06-22T13:00:13;43.60;;;35.10;;
11135;SDS011;5622;50.840;4.948;2023-06-22T13:40:26;51.90;;;36.73;;
11135;SDS011;5622;50.840;4.948;2023-06-22T13:43:04;54.00;;;36.70;;
11135;SDS011;5622;50.840;4.948;2023-06-22T13:45:51;49.70;;;37.60;;
11135;SDS011;5622;50.840;4.948;2023-06-22T13:54:50;51.20;;;35.87;;
11135;SDS011;5622;50.840;4.948;2023-06-22T13:57:20;48.67;;;36.30;;
11135;SDS011;5622;50.840;4.948;2023-06-22T13:59:48;52.63;;;36.57;;
11135;SDS011;5622;50.840;4.948;2023-06-22T14:02:15;49.13;;;37.20;;
11135;SDS011;5622;50.840;4.948;2023-06-22T14:04:44;53.17;;;37.33;;
11135;SDS011;5622;50.840;4.948;2023-06-22T14:07:12;55.70;;;37.27;;
11135;SDS011;5622;50.840;4.948;2023-06-22T14:09:40;63.43;;;40.73;;
11135;SDS011;5622;50.840;4.948;2023-06-22T14:12:10;59.57;;;39.37;;
11135;SDS011;5622;50.840;4.948;2023-06-22T14:14:44;49.63;;;38.87;;
11135;SDS011;5622;50.840;4.948;2023-06-22T14:17:12;55.47;;;38.87;;
11135;SDS011;5622;50.840;4.948;2023-06-22T14:19:40;54.30;;;39.00;;
11135;SDS011;5622;50.840;4.948;2023-06-22T14:22:12;54.07;;;38.23;;
11135;SDS011;5622;50.840;4.948;2023-06-22T14:24:40;54.00;;;37.97;;
11135;SDS011;5622;50.840;4.948;2023-06-22T14:27:21;47.80;;;36.07;;
11135;SDS011;5622;50.840;4.948;2023-06-22T14:29:55;53.10;;;37.43;;
11135;SDS011;5622;50.840;4.948;2023-06-22T14:32:40;48.63;;;35.50;;
11135;SDS011;5622;50.840;4.948;2023-06-22T14:35:23;45.00;;;34.60;;
11135;SDS011;5622;50.840;4.948;2023-06-22T14:41:34;43.27;;;32.73;;
11135;SDS011;5622;50.840;4.948;2023-06-22T14:44:55;42.47;;;30.93;;
11135;SDS011;5622;50.840;4.948;2023-06-22T14:47:35;51.23;;;31.90;;
11135;SDS011;5622;50.840;4.948;2023-06-22T14:50:21;43.33;;;31.60;;
11135;SDS011;5622;50.840;4.948;2023-06-22T14:52:49;42.90;;;30.00;;
11135;SDS011;5622;50.840;4.948;2023-06-22T14:55:23;43.60;;;30.93;;
11135;SDS011;5622;50.840;4.948;2023-06-22T14:57:51;40.03;;;28.53;;
11135;SDS011;5622;50.840;4.948;2023-06-22T15:00:21;39.23;;;27.47;;
11135;SDS011;5622;50.840;4.948;2023-06-22T15:02:49;38.63;;;26.50;;
11135;SDS011;5622;50.840;4.948;2023-06-22T15:05:20;42.47;;;28.83;;
11135;SDS011;5622;50.840;4.948;2023-06-22T15:07:49;39.10;;;27.60;;
11135;SDS011;5622;50.840;4.948;2023-06-22T15:10:20;39.73;;;27.07;;
11135;SDS011;5622;50.840;4.948;2023-06-22T15:12:50;29.43;;;21.00;;
11135;SDS011;5622;50.840;4.948;2023-06-22T15:15:18;34.50;;;21.40;;
11135;SDS011;5622;50.840;4.948;2023-06-22T15:18:09;33.47;;;20.97;;
11135;SDS011;5622;50.840;4.948;2023-06-22T15:21:10;26.50;;;19.33;;
11135;SDS011;5622;50.840;4.948;2023-06-22T15:24:20;24.73;;;18.33;;
11135;SDS011;5622;50.840;4.948;2023-06-22T15:26:52;21.83;;;17.23;;
11135;SDS011;5622;50.840;4.948;2023-06-22T15:29:24;21.37;;;17.33;;
11135;SDS011;5622;50.840;4.948;2023-06-22T15:38:58;23.60;;;17.13;;
11135;SDS011;5622;50.840;4.948;2023-06-22T15:45:59;26.10;;;17.47;;
11135;SDS011;5622;50.840;4.948;2023-06-22T15:49:36;31.67;;;17.03;;
11135;SDS011;5622;50.840;4.948;2023-06-22T15:52:45;22.13;;;16.63;;
11135;SDS011;5622;50.840;4.948;2023-06-22T15:55:34;20.87;;;16.40;;
11135;SDS011;5622;50.840;4.948;2023-06-22T15:58:47;28.60;;;17.90;;
11135;SDS011;5622;50.840;4.948;2023-06-22T16:01:55;24.57;;;19.23;;
11135;SDS011;5622;50.840;4.948;2023-06-22T16:04:44;29.17;;;19.60;;
11135;SDS011;5622;50.840;4.948;2023-06-22T16:07:35;28.50;;;19.43;;